SBI0304 UWKD-UWKD
Flight info
| Callsign | SBI0304 |
|---|---|
| Flight time | 0h 52m |
| Altitude | 35000 |
| Route | INTAR1G INTAR M161 URL W324 ATR/K0856F340 W324 AKT N37 IPLED G96 MKL/K0856F360 A955 LURIS/N0462F360 DCT BARUS DCT SARPI UN37 TBN UW706 SIV UT284 EVKIT/N0452F370 UL620 VESAR/N0455F360 DCT PASOS/N0452F370 L550 DATOK J981 NOVPA R650 SHM |
| Aircraft | A320/M-SDE3FGHIRWY/LB1 |
Departure
| Time | 2026-05-07 17:51 |
|---|---|
| Airport | Kazan International Airport (UWKD) |
Arrival
| Time | 2026-05-07 18:43 |
|---|---|
| Airport | Kazan International Airport (UWKD) |
| Time | Latitude | Longitude | Altitude | Speed | Heading |
|---|---|---|---|---|---|
| 2026-05-07 17:50 | 55.19315 | 49.63919 | 14975 ft | 353 kts | 314° |
| 2026-05-07 17:50 | 55.21042 | 49.60867 | 14978 ft | 352 kts | 315° |
| 2026-05-07 17:51 | 55.22780 | 49.57946 | 14979 ft | 352 kts | 316° |
| 2026-05-07 17:51 | 55.24576 | 49.55001 | 14979 ft | 352 kts | 317° |
| 2026-05-07 17:51 | 55.26372 | 49.52081 | 14979 ft | 352 kts | 317° |
| 2026-05-07 17:51 | 55.28164 | 49.49155 | 14978 ft | 352 kts | 316° |
| 2026-05-07 17:52 | 55.29971 | 49.46174 | 14976 ft | 352 kts | 316° |
| 2026-05-07 17:52 | 55.31741 | 49.43235 | 14975 ft | 351 kts | 316° |
| 2026-05-07 17:52 | 55.33514 | 49.40277 | 14976 ft | 351 kts | 316° |
| 2026-05-07 17:52 | 55.35299 | 49.37288 | 14978 ft | 351 kts | 316° |
| 2026-05-07 17:53 | 55.37057 | 49.34342 | 14978 ft | 351 kts | 316° |
| 2026-05-07 17:53 | 55.38818 | 49.31390 | 14980 ft | 351 kts | 316° |
| 2026-05-07 17:53 | 55.40590 | 49.28419 | 14978 ft | 351 kts | 316° |
| 2026-05-07 17:53 | 55.42353 | 49.25462 | 14975 ft | 351 kts | 316° |
| 2026-05-07 17:54 | 55.44122 | 49.22488 | 14975 ft | 351 kts | 316° |
| 2026-05-07 17:54 | 55.45887 | 49.19514 | 14978 ft | 351 kts | 315° |
| 2026-05-07 17:54 | 55.47644 | 49.16547 | 14976 ft | 351 kts | 315° |
| 2026-05-07 17:54 | 55.49411 | 49.13561 | 14976 ft | 351 kts | 315° |
| 2026-05-07 17:55 | 55.51172 | 49.10579 | 14976 ft | 351 kts | 315° |
| 2026-05-07 17:55 | 55.52931 | 49.07596 | 14975 ft | 351 kts | 315° |
| 2026-05-07 17:55 | 55.54690 | 49.04612 | 14974 ft | 350 kts | 315° |
| 2026-05-07 17:55 | 55.56422 | 49.01674 | 14977 ft | 350 kts | 315° |
| 2026-05-07 17:56 | 55.58166 | 48.98713 | 14975 ft | 342 kts | 315° |
| 2026-05-07 17:56 | 55.59881 | 48.95797 | 14970 ft | 327 kts | 315° |
| 2026-05-07 17:56 | 55.61486 | 48.93053 | 14996 ft | 312 kts | 315° |
| 2026-05-07 17:56 | 55.63028 | 48.90393 | 14945 ft | 301 kts | 315° |
| 2026-05-07 17:57 | 55.64525 | 48.87873 | 14792 ft | 297 kts | 316° |
| 2026-05-07 17:57 | 55.65523 | 48.86200 | 14497 ft | 301 kts | 315° |
| 2026-05-07 17:57 | 55.67584 | 48.82702 | 13458 ft | 319 kts | 315° |
| 2026-05-07 17:57 | 55.69210 | 48.79915 | 12652 ft | 330 kts | 315° |
| 2026-05-07 17:58 | 55.70871 | 48.77061 | 12135 ft | 331 kts | 316° |
| 2026-05-07 17:58 | 55.72512 | 48.74250 | 11831 ft | 325 kts | 315° |
| 2026-05-07 17:58 | 55.74107 | 48.71477 | 11585 ft | 317 kts | 315° |
| 2026-05-07 17:58 | 55.75681 | 48.68714 | 11316 ft | 311 kts | 315° |
| 2026-05-07 17:59 | 55.77186 | 48.66089 | 11091 ft | 305 kts | 316° |
| 2026-05-07 17:59 | 55.78704 | 48.63459 | 10870 ft | 297 kts | 316° |
| 2026-05-07 17:59 | 55.80156 | 48.60952 | 10669 ft | 291 kts | 316° |
| 2026-05-07 17:59 | 55.81580 | 48.58456 | 10456 ft | 285 kts | 315° |
| 2026-05-07 18:00 | 55.82989 | 48.55966 | 10253 ft | 279 kts | 315° |
| 2026-05-07 18:00 | 55.84471 | 48.53835 | 10034 ft | 272 kts | 335° |
| 2026-05-07 18:00 | 55.86297 | 48.53315 | 9826 ft | 267 kts | 8° |
| 2026-05-07 18:00 | 55.87926 | 48.54657 | 9625 ft | 265 kts | 41° |
| 2026-05-07 18:01 | 55.88817 | 48.57506 | 9228 ft | 271 kts | 81° |
| 2026-05-07 18:01 | 55.88489 | 48.60771 | 8819 ft | 275 kts | 121° |
| 2026-05-07 18:01 | 55.87149 | 48.63191 | 8391 ft | 276 kts | 137° |
| 2026-05-07 18:01 | 55.85810 | 48.65580 | 8102 ft | 272 kts | 135° |
| 2026-05-07 18:02 | 55.82997 | 48.70309 | 7158 ft | 281 kts | 137° |
| 2026-05-07 18:02 | 55.81573 | 48.72687 | 6793 ft | 280 kts | 135° |
| 2026-05-07 18:02 | 55.80276 | 48.75200 | 6637 ft | 271 kts | 128° |
| 2026-05-07 18:03 | 55.79174 | 48.77880 | 6523 ft | 267 kts | 122° |
| 2026-05-07 18:03 | 55.78206 | 48.80687 | 6453 ft | 266 kts | 120° |
| 2026-05-07 18:03 | 55.77281 | 48.83483 | 6296 ft | 260 kts | 119° |
| 2026-05-07 18:03 | 55.76361 | 48.86254 | 5864 ft | 262 kts | 120° |
| 2026-05-07 18:04 | 55.75414 | 48.89033 | 5471 ft | 263 kts | 121° |
| 2026-05-07 18:04 | 55.74450 | 48.91775 | 5126 ft | 261 kts | 122° |
| 2026-05-07 18:04 | 55.73399 | 48.94652 | 4768 ft | 259 kts | 122° |
| 2026-05-07 18:04 | 55.72406 | 48.97307 | 4384 ft | 259 kts | 124° |
| 2026-05-07 18:05 | 55.71395 | 48.99933 | 4050 ft | 256 kts | 125° |
| 2026-05-07 18:05 | 55.70356 | 49.02502 | 3617 ft | 255 kts | 126° |
| 2026-05-07 18:05 | 55.69324 | 49.05005 | 3071 ft | 248 kts | 126° |
| 2026-05-07 18:05 | 55.68344 | 49.07458 | 2639 ft | 239 kts | 122° |
| 2026-05-07 18:06 | 55.67522 | 49.09922 | 2284 ft | 227 kts | 121° |
| 2026-05-07 18:06 | 55.66690 | 49.12211 | 1969 ft | 216 kts | 125° |
| 2026-05-07 18:06 | 55.65861 | 49.14322 | 1708 ft | 206 kts | 124° |
| 2026-05-07 18:06 | 55.65062 | 49.16337 | 1482 ft | 195 kts | 125° |
| 2026-05-07 18:07 | 55.64297 | 49.18269 | 1229 ft | 188 kts | 121° |
| 2026-05-07 18:07 | 55.63613 | 49.20142 | 1065 ft | 175 kts | 122° |
| 2026-05-07 18:07 | 55.62959 | 49.21871 | 931 ft | 163 kts | 124° |
| 2026-05-07 18:07 | 55.62311 | 49.23507 | 687 ft | 157 kts | 123° |
| 2026-05-07 18:08 | 55.61913 | 49.24551 | 565 ft | 152 kts | 124° |
| 2026-05-07 18:08 | 55.61194 | 49.26410 | 529 ft | 150 kts | 124° |
| 2026-05-07 18:08 | 55.60504 | 49.28192 | 531 ft | 150 kts | 124° |
| 2026-05-07 18:08 | 55.59925 | 49.29653 | 570 ft | 151 kts | 124° |
| 2026-05-07 18:09 | 55.59302 | 49.31224 | 1008 ft | 155 kts | 124° |
| 2026-05-07 18:09 | 55.58697 | 49.32767 | 1562 ft | 151 kts | 124° |
| 2026-05-07 18:09 | 55.58110 | 49.34271 | 2124 ft | 147 kts | 125° |
| 2026-05-07 18:09 | 55.57528 | 49.35766 | 2592 ft | 150 kts | 124° |
| 2026-05-07 18:10 | 55.56927 | 49.37325 | 3010 ft | 156 kts | 124° |
| 2026-05-07 18:10 | 55.56315 | 49.38929 | 3437 ft | 159 kts | 123° |
| 2026-05-07 18:10 | 55.55665 | 49.40554 | 3811 ft | 167 kts | 132° |
| 2026-05-07 18:10 | 55.54591 | 49.41496 | 4000 ft | 185 kts | 176° |
| 2026-05-07 18:11 | 55.53299 | 49.40845 | 4007 ft | 213 kts | 216° |
| 2026-05-07 18:11 | 55.52601 | 49.39524 | 3931 ft | 232 kts | 240° |
| 2026-05-07 18:11 | 55.52222 | 49.35630 | 3843 ft | 255 kts | 279° |
| 2026-05-07 18:11 | 55.52588 | 49.32637 | 3917 ft | 248 kts | 284° |
| 2026-05-07 18:12 | 55.53015 | 49.29691 | 3947 ft | 247 kts | 287° |
| 2026-05-07 18:12 | 55.53473 | 49.26774 | 4021 ft | 247 kts | 287° |
| 2026-05-07 18:12 | 55.53960 | 49.23876 | 4078 ft | 247 kts | 288° |
| 2026-05-07 18:12 | 55.54467 | 49.20984 | 4120 ft | 246 kts | 288° |
| 2026-05-07 18:13 | 55.55025 | 49.18126 | 4059 ft | 246 kts | 296° |
| 2026-05-07 18:13 | 55.55924 | 49.15583 | 4020 ft | 245 kts | 305° |
| 2026-05-07 18:13 | 55.56904 | 49.13121 | 4004 ft | 245 kts | 306° |
| 2026-05-07 18:13 | 55.57899 | 49.10682 | 3996 ft | 244 kts | 307° |
| 2026-05-07 18:14 | 55.58902 | 49.08280 | 3983 ft | 242 kts | 307° |
| 2026-05-07 18:14 | 55.59918 | 49.05903 | 3959 ft | 242 kts | 308° |
| 2026-05-07 18:14 | 55.60948 | 49.03547 | 3964 ft | 242 kts | 309° |
| 2026-05-07 18:14 | 55.61991 | 49.01219 | 3986 ft | 242 kts | 309° |
| 2026-05-07 18:15 | 55.63072 | 48.98945 | 3995 ft | 242 kts | 315° |
| 2026-05-07 18:15 | 55.64478 | 48.97379 | 3972 ft | 241 kts | 344° |
| 2026-05-07 18:15 | 55.66144 | 48.97153 | 3930 ft | 242 kts | 354° |
| 2026-05-07 18:15 | 55.67821 | 48.96936 | 3966 ft | 242 kts | 356° |
| 2026-05-07 18:16 | 55.68933 | 48.96818 | 4002 ft | 243 kts | 355° |
| 2026-05-07 18:16 | 55.70624 | 48.96678 | 4046 ft | 243 kts | 355° |
| 2026-05-07 18:16 | 55.72313 | 48.96515 | 3963 ft | 243 kts | 355° |
| 2026-05-07 18:16 | 55.73989 | 48.96706 | 3783 ft | 243 kts | 24° |
| 2026-05-07 18:17 | 55.75174 | 48.98658 | 3479 ft | 231 kts | 68° |
| 2026-05-07 18:17 | 55.75259 | 49.01404 | 2834 ft | 228 kts | 115° |
| 2026-05-07 18:17 | 55.74238 | 49.03370 | 2696 ft | 223 kts | 153° |
| 2026-05-07 18:17 | 55.72716 | 49.03957 | 2605 ft | 230 kts | 183° |
| 2026-05-07 18:18 | 55.71105 | 49.03759 | 2636 ft | 233 kts | 184° |
| 2026-05-07 18:18 | 55.69501 | 49.03922 | 2743 ft | 233 kts | 154° |
| 2026-05-07 18:18 | 55.68418 | 49.05906 | 2746 ft | 225 kts | 111° |
| 2026-05-07 18:18 | 55.68042 | 49.08545 | 2437 ft | 216 kts | 105° |
| 2026-05-07 18:19 | 55.67397 | 49.10853 | 2200 ft | 207 kts | 129° |
| 2026-05-07 18:19 | 55.66451 | 49.12741 | 1981 ft | 204 kts | 129° |
| 2026-05-07 18:19 | 55.65659 | 49.14771 | 1794 ft | 192 kts | 121° |
| 2026-05-07 18:19 | 55.64993 | 49.16767 | 1434 ft | 185 kts | 124° |
| 2026-05-07 18:20 | 55.64285 | 49.18439 | 1343 ft | 165 kts | 126° |
| 2026-05-07 18:20 | 55.63631 | 49.20056 | 1086 ft | 157 kts | 122° |
| 2026-05-07 18:20 | 55.63035 | 49.21654 | 840 ft | 154 kts | 122° |
| 2026-05-07 18:20 | 55.62423 | 49.23214 | 622 ft | 153 kts | 124° |
| 2026-05-07 18:21 | 55.61835 | 49.24773 | 715 ft | 153 kts | 123° |
| 2026-05-07 18:21 | 55.61274 | 49.26240 | 1491 ft | 141 kts | 124° |
| 2026-05-07 18:21 | 55.60700 | 49.27739 | 1911 ft | 160 kts | 123° |
| 2026-05-07 18:21 | 55.60038 | 49.29458 | 2311 ft | 175 kts | 125° |
| 2026-05-07 18:22 | 55.59305 | 49.31288 | 2548 ft | 189 kts | 129° |
| 2026-05-07 18:22 | 55.58622 | 49.32318 | 2690 ft | 196 kts | 155° |
| 2026-05-07 18:22 | 55.56819 | 49.32120 | 2902 ft | 215 kts | 212° |
| 2026-05-07 18:22 | 55.55816 | 49.30070 | 3003 ft | 234 kts | 247° |
| 2026-05-07 18:23 | 55.55646 | 49.27131 | 3391 ft | 239 kts | 282° |
| 2026-05-07 18:23 | 55.56231 | 49.24403 | 3754 ft | 247 kts | 291° |
| 2026-05-07 18:23 | 55.56945 | 49.21649 | 3910 ft | 244 kts | 295° |
| 2026-05-07 18:23 | 55.57649 | 49.18935 | 4091 ft | 243 kts | 295° |
| 2026-05-07 18:24 | 55.58347 | 49.16219 | 4112 ft | 243 kts | 295° |
| 2026-05-07 18:24 | 55.59032 | 49.13491 | 4048 ft | 242 kts | 294° |
| 2026-05-07 18:24 | 55.59731 | 49.10781 | 3955 ft | 242 kts | 295° |
| 2026-05-07 18:24 | 55.60446 | 49.08091 | 3900 ft | 242 kts | 296° |
| 2026-05-07 18:25 | 55.61169 | 49.05407 | 3884 ft | 242 kts | 296° |
| 2026-05-07 18:25 | 55.61901 | 49.02733 | 3872 ft | 242 kts | 296° |
| 2026-05-07 18:25 | 55.62637 | 49.00086 | 3862 ft | 242 kts | 296° |
| 2026-05-07 18:25 | 55.63406 | 48.97372 | 3860 ft | 241 kts | 299° |
| 2026-05-07 18:26 | 55.64626 | 48.95466 | 3954 ft | 240 kts | 345° |
| 2026-05-07 18:26 | 55.66254 | 48.95710 | 4036 ft | 242 kts | 29° |
| 2026-05-07 18:26 | 55.67353 | 48.97813 | 3789 ft | 233 kts | 67° |
| 2026-05-07 18:26 | 55.67515 | 49.00555 | 3439 ft | 224 kts | 98° |
| 2026-05-07 18:27 | 55.67324 | 49.03465 | 3108 ft | 214 kts | 94° |
| 2026-05-07 18:27 | 55.67207 | 49.05826 | 2807 ft | 209 kts | 97° |
| 2026-05-07 18:27 | 55.67057 | 49.08372 | 2582 ft | 200 kts | 97° |
| 2026-05-07 18:27 | 55.66930 | 49.10685 | 2443 ft | 184 kts | 97° |
| 2026-05-07 18:28 | 55.66685 | 49.12826 | 2092 ft | 172 kts | 120° |
| 2026-05-07 18:28 | 55.65905 | 49.14299 | 1783 ft | 159 kts | 137° |
| 2026-05-07 18:28 | 55.65199 | 49.15732 | 1518 ft | 152 kts | 120° |
| 2026-05-07 18:28 | 55.64658 | 49.17342 | 1357 ft | 153 kts | 121° |
| 2026-05-07 18:29 | 55.64118 | 49.18926 | 1239 ft | 153 kts | 125° |
| 2026-05-07 18:29 | 55.63473 | 49.20457 | 1011 ft | 153 kts | 127° |
| 2026-05-07 18:29 | 55.62892 | 49.22003 | 814 ft | 153 kts | 122° |
| 2026-05-07 18:29 | 55.62291 | 49.23578 | 633 ft | 153 kts | 123° |
| 2026-05-07 18:30 | 55.61690 | 49.25124 | 452 ft | 152 kts | 125° |
| 2026-05-07 18:30 | 55.61096 | 49.26604 | 1057 ft | 146 kts | 123° |
| 2026-05-07 18:30 | 55.60462 | 49.28078 | 1465 ft | 154 kts | 127° |
| 2026-05-07 18:30 | 55.59828 | 49.29618 | 1950 ft | 155 kts | 124° |
| 2026-05-07 18:31 | 55.59218 | 49.31186 | 2459 ft | 154 kts | 124° |
| 2026-05-07 18:31 | 55.58632 | 49.32735 | 2816 ft | 155 kts | 124° |
| 2026-05-07 18:31 | 55.57877 | 49.34155 | 2997 ft | 164 kts | 155° |
| 2026-05-07 18:31 | 55.56797 | 49.33935 | 3209 ft | 171 kts | 220° |
| 2026-05-07 18:32 | 55.56425 | 49.31978 | 3316 ft | 182 kts | 279° |
| 2026-05-07 18:32 | 55.56769 | 49.29800 | 3480 ft | 190 kts | 285° |
| 2026-05-07 18:32 | 55.57186 | 49.27464 | 3544 ft | 208 kts | 291° |
| 2026-05-07 18:32 | 55.57825 | 49.25051 | 3633 ft | 227 kts | 296° |
| 2026-05-07 18:33 | 55.58531 | 49.22400 | 3698 ft | 250 kts | 295° |
| 2026-05-07 18:33 | 55.59269 | 49.19572 | 4046 ft | 251 kts | 295° |
| 2026-05-07 18:33 | 55.59987 | 49.16809 | 3889 ft | 242 kts | 294° |
| 2026-05-07 18:33 | 55.60695 | 49.14126 | 3894 ft | 241 kts | 296° |
| 2026-05-07 18:34 | 55.61431 | 49.11466 | 3908 ft | 241 kts | 297° |
| 2026-05-07 18:34 | 55.62193 | 49.08834 | 3928 ft | 240 kts | 298° |
| 2026-05-07 18:34 | 55.62975 | 49.06218 | 3947 ft | 240 kts | 295° |
| 2026-05-07 18:34 | 55.63729 | 49.03580 | 3953 ft | 240 kts | 296° |
| 2026-05-07 18:35 | 55.64453 | 49.00915 | 3963 ft | 240 kts | 295° |
| 2026-05-07 18:35 | 55.65156 | 48.98243 | 3963 ft | 235 kts | 295° |
| 2026-05-07 18:35 | 55.65801 | 48.95733 | 3927 ft | 216 kts | 294° |
| 2026-05-07 18:35 | 55.66404 | 48.93321 | 3891 ft | 213 kts | 293° |
| 2026-05-07 18:36 | 55.66989 | 48.90911 | 3852 ft | 213 kts | 292° |
| 2026-05-07 18:36 | 55.67553 | 48.88521 | 3814 ft | 213 kts | 292° |
| 2026-05-07 18:36 | 55.68122 | 48.86096 | 3787 ft | 213 kts | 295° |
| 2026-05-07 18:36 | 55.69008 | 48.84077 | 3686 ft | 206 kts | 326° |
| 2026-05-07 18:37 | 55.70343 | 48.83326 | 3299 ft | 204 kts | 359° |
| 2026-05-07 18:37 | 55.71713 | 48.83977 | 2846 ft | 206 kts | 33° |
| 2026-05-07 18:37 | 55.72732 | 48.85763 | 2703 ft | 209 kts | 59° |
| 2026-05-07 18:37 | 55.73364 | 48.88107 | 2725 ft | 212 kts | 76° |
| 2026-05-07 18:38 | 55.73535 | 48.90676 | 2666 ft | 210 kts | 96° |
| 2026-05-07 18:38 | 55.73345 | 48.93239 | 2643 ft | 209 kts | 98° |
| 2026-05-07 18:38 | 55.73090 | 48.95690 | 2591 ft | 198 kts | 112° |
| 2026-05-07 18:38 | 55.72288 | 48.97842 | 2559 ft | 189 kts | 126° |
| 2026-05-07 18:39 | 55.71516 | 48.99452 | 2665 ft | 186 kts | 124° |
| 2026-05-07 18:39 | 55.70802 | 49.01364 | 2621 ft | 185 kts | 123° |
| 2026-05-07 18:39 | 55.70099 | 49.03199 | 2593 ft | 177 kts | 126° |
| 2026-05-07 18:39 | 55.69400 | 49.04977 | 2616 ft | 176 kts | 126° |
| 2026-05-07 18:40 | 55.68721 | 49.06777 | 2624 ft | 176 kts | 123° |
| 2026-05-07 18:40 | 55.68057 | 49.08638 | 2433 ft | 171 kts | 124° |
| 2026-05-07 18:40 | 55.67428 | 49.10262 | 2332 ft | 159 kts | 127° |
| 2026-05-07 18:40 | 55.66802 | 49.11870 | 2136 ft | 155 kts | 125° |
| 2026-05-07 18:41 | 55.66191 | 49.13443 | 1904 ft | 152 kts | 125° |
| 2026-05-07 18:41 | 55.65590 | 49.14957 | 1676 ft | 151 kts | 126° |
| 2026-05-07 18:41 | 55.64979 | 49.16467 | 1439 ft | 151 kts | 122° |
| 2026-05-07 18:41 | 55.64436 | 49.18056 | 1284 ft | 151 kts | 121° |
| 2026-05-07 18:42 | 55.63844 | 49.19565 | 1112 ft | 151 kts | 123° |
| 2026-05-07 18:42 | 55.63233 | 49.21095 | 1008 ft | 152 kts | 123° |
| 2026-05-07 18:42 | 55.62651 | 49.22662 | 796 ft | 153 kts | 123° |
| 2026-05-07 18:42 | 55.62047 | 49.24198 | 590 ft | 151 kts | 122° |
| 2026-05-07 18:43 | 55.61459 | 49.25723 | 427 ft | 141 kts | 123° |
| 2026-05-07 18:43 | 55.60972 | 49.26992 | 409 ft | 98 kts | 124° |
| 2026-05-07 18:43 | 55.60678 | 49.27750 | 414 ft | 59 kts | 124° |
| 2026-05-07 18:43 | 55.60475 | 49.28267 | 413 ft | 46 kts | 124° |
| 2026-05-07 18:44 | 55.60394 | 49.28516 | 417 ft | 17 kts | 92° |
| 2026-05-07 18:44 | 55.60459 | 49.28658 | 415 ft | 12 kts | 35° |
| 2026-05-07 18:44 | 55.60467 | 49.28667 | 413 ft | 1 kts | 35° |
| 2026-05-07 18:44 | 55.60476 | 49.28678 | 414 ft | 2 kts | 34° |
| 2026-05-07 18:45 | 55.60482 | 49.28686 | 412 ft | 0 kts | 34° |
| 2026-05-07 18:45 | 55.60485 | 49.28690 | 412 ft | 2 kts | 35° |
| 2026-05-07 18:45 | 55.60518 | 49.28744 | 415 ft | 8 kts | 55° |
| 2026-05-07 18:46 | 55.60515 | 49.28809 | 407 ft | 10 kts | 118° |
| 2026-05-07 18:46 | 55.60471 | 49.28929 | 414 ft | 14 kts | 123° |
| 2026-05-07 18:46 | 55.60416 | 49.29080 | 413 ft | 15 kts | 123° |
| 2026-05-07 18:46 | 55.60354 | 49.29244 | 410 ft | 17 kts | 125° |
| 2026-05-07 18:47 | 55.60285 | 49.29418 | 410 ft | 18 kts | 125° |
| 2026-05-07 18:47 | 55.60213 | 49.29609 | 410 ft | 19 kts | 123° |
| 2026-05-07 18:47 | 55.60140 | 49.29796 | 410 ft | 18 kts | 126° |
| 2026-05-07 18:47 | 55.60156 | 49.29955 | 411 ft | 14 kts | 6° |
| 2026-05-07 18:48 | 55.60244 | 49.29899 | 413 ft | 12 kts | 335° |
| 2026-05-07 18:48 | 55.60321 | 49.29872 | 410 ft | 10 kts | 360° |
| 2026-05-07 18:48 | 55.60378 | 49.29905 | 410 ft | 8 kts | 22° |
| 2026-05-07 18:48 | 55.60419 | 49.29949 | 413 ft | 6 kts | 35° |
| 2026-05-07 18:49 | 55.60457 | 49.29999 | 414 ft | 10 kts | 36° |
| 2026-05-07 18:49 | 55.60529 | 49.30090 | 416 ft | 13 kts | 28° |
| 2026-05-07 18:49 | 55.60597 | 49.30036 | 413 ft | 12 kts | 308° |
| 2026-05-07 18:49 | 55.60633 | 49.29947 | 407 ft | 3 kts | 303° |
| 2026-05-07 18:50 | 55.60637 | 49.29922 | 411 ft | 1 kts | 275° |
| 2026-05-07 18:50 | 55.60618 | 49.29878 | 409 ft | 8 kts | 215° |
| 2026-05-07 18:50 | 55.60600 | 49.29856 | 412 ft | 0 kts | 215° |